sensor_id;sensor_type;location;lat;lon;timestamp;temperature;humidity
68128;SHT30;54931;52.098;21.006;2023-08-06T00:01:37;19.50;86.33
68128;SHT30;54931;52.098;21.006;2023-08-06T00:04:04;19.52;86.35
68128;SHT30;54931;52.098;21.006;2023-08-06T00:06:32;19.52;86.33
68128;SHT30;54931;52.098;21.006;2023-08-06T00:08:59;19.53;86.30
68128;SHT30;54931;52.098;21.006;2023-08-06T00:11:27;19.51;86.34
68128;SHT30;54931;52.098;21.006;2023-08-06T00:13:55;19.47;86.40
68128;SHT30;54931;52.098;21.006;2023-08-06T00:16:22;19.46;86.46
68128;SHT30;54931;52.098;21.006;2023-08-06T00:18:50;19.45;86.50
68128;SHT30;54931;52.098;21.006;2023-08-06T00:21:18;19.44;86.59
68128;SHT30;54931;52.098;21.006;2023-08-06T00:23:46;19.42;86.66
68128;SHT30;54931;52.098;21.006;2023-08-06T00:26:13;19.41;86.72
68128;SHT30;54931;52.098;21.006;2023-08-06T00:28:40;19.37;86.71
68128;SHT30;54931;52.098;21.006;2023-08-06T00:31:08;19.37;86.73
68128;SHT30;54931;52.098;21.006;2023-08-06T00:33:36;19.36;86.74
68128;SHT30;54931;52.098;21.006;2023-08-06T00:36:03;19.35;86.79
68128;SHT30;54931;52.098;21.006;2023-08-06T00:38:31;19.34;86.81
68128;SHT30;54931;52.098;21.006;2023-08-06T00:40:59;19.33;86.84
68128;SHT30;54931;52.098;21.006;2023-08-06T00:43:26;19.34;86.90
68128;SHT30;54931;52.098;21.006;2023-08-06T00:45:54;19.33;86.90
68128;SHT30;54931;52.098;21.006;2023-08-06T00:48:22;19.34;86.90
68128;SHT30;54931;52.098;21.006;2023-08-06T00:50:50;19.33;86.88
68128;SHT30;54931;52.098;21.006;2023-08-06T00:53:18;19.32;86.86
68128;SHT30;54931;52.098;21.006;2023-08-06T00:55:45;19.31;86.88
68128;SHT30;54931;52.098;21.006;2023-08-06T00:58:13;19.29;86.90
68128;SHT30;54931;52.098;21.006;2023-08-06T01:00:43;19.29;86.90
68128;SHT30;54931;52.098;21.006;2023-08-06T01:03:10;19.28;86.91
68128;SHT30;54931;52.098;21.006;2023-08-06T01:05:38;19.25;86.90
68128;SHT30;54931;52.098;21.006;2023-08-06T01:11:26;19.22;87.00
68128;SHT30;54931;52.098;21.006;2023-08-06T01:14:13;19.21;87.00
68128;SHT30;54931;52.098;21.006;2023-08-06T01:16:50;19.20;87.01
68128;SHT30;54931;52.098;21.006;2023-08-06T01:19:19;19.19;87.03
68128;SHT30;54931;52.098;21.006;2023-08-06T01:21:47;19.18;87.08
68128;SHT30;54931;52.098;21.006;2023-08-06T01:24:15;19.17;87.09
68128;SHT30;54931;52.098;21.006;2023-08-06T01:26:44;19.17;87.12
68128;SHT30;54931;52.098;21.006;2023-08-06T01:29:46;19.16;87.19
68128;SHT30;54931;52.098;21.006;2023-08-06T01:32:24;19.17;87.20
68128;SHT30;54931;52.098;21.006;2023-08-06T01:34:54;19.16;87.29
68128;SHT30;54931;52.098;21.006;2023-08-06T01:37:24;19.17;87.31
68128;SHT30;54931;52.098;21.006;2023-08-06T01:39:52;19.17;87.31
68128;SHT30;54931;52.098;21.006;2023-08-06T01:42:20;19.17;87.36
68128;SHT30;54931;52.098;21.006;2023-08-06T01:44:47;19.17;87.35
68128;SHT30;54931;52.098;21.006;2023-08-06T01:47:15;19.18;87.37
68128;SHT30;54931;52.098;21.006;2023-08-06T01:49:42;19.18;87.40
68128;SHT30;54931;52.098;21.006;2023-08-06T01:52:10;19.18;87.38
68128;SHT30;54931;52.098;21.006;2023-08-06T01:54:37;19.19;87.40
68128;SHT30;54931;52.098;21.006;2023-08-06T01:57:05;19.18;87.40
68128;SHT30;54931;52.098;21.006;2023-08-06T01:59:33;19.18;87.40
68128;SHT30;54931;52.098;21.006;2023-08-06T02:02:01;19.19;87.40
68128;SHT30;54931;52.098;21.006;2023-08-06T02:04:28;19.20;87.42
68128;SHT30;54931;52.098;21.006;2023-08-06T02:06:55;19.18;87.41
68128;SHT30;54931;52.098;21.006;2023-08-06T02:09:23;19.17;87.47
68128;SHT30;54931;52.098;21.006;2023-08-06T02:11:51;19.18;87.50
68128;SHT30;54931;52.098;21.006;2023-08-06T02:14:18;19.17;87.51
68128;SHT30;54931;52.098;21.006;2023-08-06T02:16:46;19.18;87.52
68128;SHT30;54931;52.098;21.006;2023-08-06T02:19:13;19.18;87.51
68128;SHT30;54931;52.098;21.006;2023-08-06T02:21:40;19.18;87.50
68128;SHT30;54931;52.098;21.006;2023-08-06T02:24:08;19.16;87.55
68128;SHT30;54931;52.098;21.006;2023-08-06T02:26:35;19.18;87.58
68128;SHT30;54931;52.098;21.006;2023-08-06T02:29:03;19.18;87.62
68128;SHT30;54931;52.098;21.006;2023-08-06T02:31:30;19.18;87.65
68128;SHT30;54931;52.098;21.006;2023-08-06T02:33:58;19.20;87.67
68128;SHT30;54931;52.098;21.006;2023-08-06T02:36:25;19.20;87.69
68128;SHT30;54931;52.098;21.006;2023-08-06T02:38:56;19.21;87.69
68128;SHT30;54931;52.098;21.006;2023-08-06T02:41:23;19.21;87.72
68128;SHT30;54931;52.098;21.006;2023-08-06T02:43:52;19.22;87.72
68128;SHT30;54931;52.098;21.006;2023-08-06T02:46:20;19.23;87.70
68128;SHT30;54931;52.098;21.006;2023-08-06T02:48:47;19.24;87.70
68128;SHT30;54931;52.098;21.006;2023-08-06T02:51:15;19.26;87.72
68128;SHT30;54931;52.098;21.006;2023-08-06T02:53:42;19.25;87.82
68128;SHT30;54931;52.098;21.006;2023-08-06T02:56:10;19.26;87.81
68128;SHT30;54931;52.098;21.006;2023-08-06T02:58:37;19.26;87.80
68128;SHT30;54931;52.098;21.006;2023-08-06T03:01:05;19.26;87.81
68128;SHT30;54931;52.098;21.006;2023-08-06T03:03:34;19.27;87.80
68128;SHT30;54931;52.098;21.006;2023-08-06T03:06:02;19.27;87.79
68128;SHT30;54931;52.098;21.006;2023-08-06T03:08:30;19.28;87.80
68128;SHT30;54931;52.098;21.006;2023-08-06T03:10:57;19.29;87.80
68128;SHT30;54931;52.098;21.006;2023-08-06T03:13:25;19.29;87.79
68128;SHT30;54931;52.098;21.006;2023-08-06T03:18:24;19.31;87.85
68128;SHT30;54931;52.098;21.006;2023-08-06T03:20:53;19.32;87.87
68128;SHT30;54931;52.098;21.006;2023-08-06T03:23:21;19.32;87.85
68128;SHT30;54931;52.098;21.006;2023-08-06T03:25:48;19.34;87.84
68128;SHT30;54931;52.098;21.006;2023-08-06T03:28:16;19.36;87.82
68128;SHT30;54931;52.098;21.006;2023-08-06T03:30:43;19.37;87.82
68128;SHT30;54931;52.098;21.006;2023-08-06T03:33:11;19.40;87.86
68128;SHT30;54931;52.098;21.006;2023-08-06T03:35:39;19.41;87.87
68128;SHT30;54931;52.098;21.006;2023-08-06T03:38:06;19.41;87.87
68128;SHT30;54931;52.098;21.006;2023-08-06T03:40:35;19.43;87.91
68128;SHT30;54931;52.098;21.006;2023-08-06T03:43:03;19.45;87.91
68128;SHT30;54931;52.098;21.006;2023-08-06T03:45:31;19.46;87.90
68128;SHT30;54931;52.098;21.006;2023-08-06T03:47:59;19.48;87.90
68128;SHT30;54931;52.098;21.006;2023-08-06T03:50:27;19.50;87.90
68128;SHT30;54931;52.098;21.006;2023-08-06T03:52:54;19.52;87.92
68128;SHT30;54931;52.098;21.006;2023-08-06T03:55:22;19.53;87.91
68128;SHT30;54931;52.098;21.006;2023-08-06T03:57:49;19.56;87.89
68128;SHT30;54931;52.098;21.006;2023-08-06T04:00:17;19.56;87.89
68128;SHT30;54931;52.098;21.006;2023-08-06T04:02:45;19.58;87.90
68128;SHT30;54931;52.098;21.006;2023-08-06T04:05:13;19.61;87.90
68128;SHT30;54931;52.098;21.006;2023-08-06T04:07:41;19.63;87.90
68128;SHT30;54931;52.098;21.006;2023-08-06T04:10:09;19.65;87.87
68128;SHT30;54931;52.098;21.006;2023-08-06T04:12:37;19.69;87.89
68128;SHT30;54931;52.098;21.006;2023-08-06T04:15:06;19.71;87.88
68128;SHT30;54931;52.098;21.006;2023-08-06T04:17:34;19.73;87.89
68128;SHT30;54931;52.098;21.006;2023-08-06T04:20:02;19.75;87.84
68128;SHT30;54931;52.098;21.006;2023-08-06T04:22:30;19.78;87.82
68128;SHT30;54931;52.098;21.006;2023-08-06T04:24:58;19.80;87.81
68128;SHT30;54931;52.098;21.006;2023-08-06T04:27:25;19.83;87.80
68128;SHT30;54931;52.098;21.006;2023-08-06T04:29:54;19.87;87.78
68128;SHT30;54931;52.098;21.006;2023-08-06T04:32:21;19.90;87.73
68128;SHT30;54931;52.098;21.006;2023-08-06T04:34:49;19.95;87.66
68128;SHT30;54931;52.098;21.006;2023-08-06T04:37:16;19.99;87.57
68128;SHT30;54931;52.098;21.006;2023-08-06T04:39:44;20.04;87.50
68128;SHT30;54931;52.098;21.006;2023-08-06T04:42:12;20.11;87.44
68128;SHT30;54931;52.098;21.006;2023-08-06T04:44:39;20.15;87.26
68128;SHT30;54931;52.098;21.006;2023-08-06T04:47:07;20.20;87.22
68128;SHT30;54931;52.098;21.006;2023-08-06T04:49:35;20.26;87.08
68128;SHT30;54931;52.098;21.006;2023-08-06T04:52:03;20.30;86.88
68128;SHT30;54931;52.098;21.006;2023-08-06T04:54:31;20.33;86.75
68128;SHT30;54931;52.098;21.006;2023-08-06T04:56:59;20.40;86.75
68128;SHT30;54931;52.098;21.006;2023-08-06T04:59:27;20.56;86.63
68128;SHT30;54931;52.098;21.006;2023-08-06T05:01:55;20.77;86.52
68128;SHT30;54931;52.098;21.006;2023-08-06T05:04:22;20.97;86.35
68128;SHT30;54931;52.098;21.006;2023-08-06T05:06:50;21.20;85.98
68128;SHT30;54931;52.098;21.006;2023-08-06T05:09:17;21.45;85.53
68128;SHT30;54931;52.098;21.006;2023-08-06T05:11:46;21.71;84.86
68128;SHT30;54931;52.098;21.006;2023-08-06T05:14:14;21.83;83.95
68128;SHT30;54931;52.098;21.006;2023-08-06T05:16:41;22.02;83.74
68128;SHT30;54931;52.098;21.006;2023-08-06T05:19:09;22.22;83.05
68128;SHT30;54931;52.098;21.006;2023-08-06T05:21:36;22.36;82.30
68128;SHT30;54931;52.098;21.006;2023-08-06T05:24:04;22.53;82.08
68128;SHT30;54931;52.098;21.006;2023-08-06T05:26:31;22.80;81.73
68128;SHT30;54931;52.098;21.006;2023-08-06T05:28:59;22.98;80.83
68128;SHT30;54931;52.098;21.006;2023-08-06T05:31:27;23.15;80.31
68128;SHT30;54931;52.098;21.006;2023-08-06T05:33:56;23.45;80.12
68128;SHT30;54931;52.098;21.006;2023-08-06T05:36:23;23.91;79.57
68128;SHT30;54931;52.098;21.006;2023-08-06T05:38:51;24.21;77.57
68128;SHT30;54931;52.098;21.006;2023-08-06T05:41:18;24.36;76.74
68128;SHT30;54931;52.098;21.006;2023-08-06T05:43:46;24.61;76.34
68128;SHT30;54931;52.098;21.006;2023-08-06T05:46:14;24.94;75.43
68128;SHT30;54931;52.098;21.006;2023-08-06T05:48:41;25.16;74.65
68128;SHT30;54931;52.098;21.006;2023-08-06T05:51:09;25.31;73.89
68128;SHT30;54931;52.098;21.006;2023-08-06T05:53:39;25.41;72.39
68128;SHT30;54931;52.098;21.006;2023-08-06T05:56:07;25.57;71.84
68128;SHT30;54931;52.098;21.006;2023-08-06T05:58:34;25.67;70.55
68128;SHT30;54931;52.098;21.006;2023-08-06T06:01:03;25.79;70.68
68128;SHT30;54931;52.098;21.006;2023-08-06T06:03:30;25.99;70.09
68128;SHT30;54931;52.098;21.006;2023-08-06T06:05:58;25.94;67.54
68128;SHT30;54931;52.098;21.006;2023-08-06T06:08:28;25.79;68.59
68128;SHT30;54931;52.098;21.006;2023-08-06T06:10:56;25.84;68.35
68128;SHT30;54931;52.098;21.006;2023-08-06T06:13:23;25.91;67.48
68128;SHT30;54931;52.098;21.006;2023-08-06T06:15:53;26.02;67.93
68128;SHT30;54931;52.098;21.006;2023-08-06T06:18:22;25.76;67.56
68128;SHT30;54931;52.098;21.006;2023-08-06T06:20:50;25.27;67.97
68128;SHT30;54931;52.098;21.006;2023-08-06T06:23:17;24.95;69.20
68128;SHT30;54931;52.098;21.006;2023-08-06T06:25:48;24.98;69.63
68128;SHT30;54931;52.098;21.006;2023-08-06T06:28:20;25.04;68.52
68128;SHT30;54931;52.098;21.006;2023-08-06T06:30:47;25.30;68.63
68128;SHT30;54931;52.098;21.006;2023-08-06T06:33:15;25.87;68.11
68128;SHT30;54931;52.098;21.006;2023-08-06T06:35:43;26.37;67.38
68128;SHT30;54931;52.098;21.006;2023-08-06T06:38:10;26.74;65.77
68128;SHT30;54931;52.098;21.006;2023-08-06T06:40:37;26.88;64.62
68128;SHT30;54931;52.098;21.006;2023-08-06T06:43:06;27.01;64.31
68128;SHT30;54931;52.098;21.006;2023-08-06T06:45:33;27.21;63.41
68128;SHT30;54931;52.098;21.006;2023-08-06T06:48:01;27.38;62.83
68128;SHT30;54931;52.098;21.006;2023-08-06T06:50:29;27.49;62.99
68128;SHT30;54931;52.098;21.006;2023-08-06T06:52:56;27.69;61.51
68128;SHT30;54931;52.098;21.006;2023-08-06T06:55:24;27.76;61.34
68128;SHT30;54931;52.098;21.006;2023-08-06T06:57:51;27.78;60.09
68128;SHT30;54931;52.098;21.006;2023-08-06T07:00:19;27.65;60.12
68128;SHT30;54931;52.098;21.006;2023-08-06T07:02:46;27.56;61.21
68128;SHT30;54931;52.098;21.006;2023-08-06T07:05:14;27.24;61.42
68128;SHT30;54931;52.098;21.006;2023-08-06T07:07:41;27.13;61.70
68128;SHT30;54931;52.098;21.006;2023-08-06T07:10:09;27.38;61.24
68128;SHT30;54931;52.098;21.006;2023-08-06T07:12:37;27.64;60.92
68128;SHT30;54931;52.098;21.006;2023-08-06T07:15:08;27.65;60.59
68128;SHT30;54931;52.098;21.006;2023-08-06T07:17:37;27.77;60.77
68128;SHT30;54931;52.098;21.006;2023-08-06T07:20:04;27.81;60.37
68128;SHT30;54931;52.098;21.006;2023-08-06T07:22:33;27.76;60.26
68128;SHT30;54931;52.098;21.006;2023-08-06T07:25:00;27.72;60.80
68128;SHT30;54931;52.098;21.006;2023-08-06T07:27:29;27.91;60.90
68128;SHT30;54931;52.098;21.006;2023-08-06T07:29:58;28.17;59.88
68128;SHT30;54931;52.098;21.006;2023-08-06T07:32:26;28.36;58.97
68128;SHT30;54931;52.098;21.006;2023-08-06T07:34:55;28.46;60.43
68128;SHT30;54931;52.098;21.006;2023-08-06T07:37:26;28.43;59.08
68128;SHT30;54931;52.098;21.006;2023-08-06T07:39:56;28.10;59.00
68128;SHT30;54931;52.098;21.006;2023-08-06T07:42:24;27.92;59.15
68128;SHT30;54931;52.098;21.006;2023-08-06T07:44:53;27.83;59.63
68128;SHT30;54931;52.098;21.006;2023-08-06T07:47:23;27.67;59.77
68128;SHT30;54931;52.098;21.006;2023-08-06T07:49:53;27.62;60.49
68128;SHT30;54931;52.098;21.006;2023-08-06T07:52:22;27.65;60.72
68128;SHT30;54931;52.098;21.006;2023-08-06T07:54:49;27.77;60.28
68128;SHT30;54931;52.098;21.006;2023-08-06T07:57:19;28.12;60.45
68128;SHT30;54931;52.098;21.006;2023-08-06T07:59:46;28.54;59.60
68128;SHT30;54931;52.098;21.006;2023-08-06T08:02:14;28.84;58.62
68128;SHT30;54931;52.098;21.006;2023-08-06T08:04:41;29.23;59.14
68128;SHT30;54931;52.098;21.006;2023-08-06T08:07:09;29.62;57.72
68128;SHT30;54931;52.098;21.006;2023-08-06T08:09:37;29.77;56.70
68128;SHT30;54931;52.098;21.006;2023-08-06T08:12:05;29.91;55.70
68128;SHT30;54931;52.098;21.006;2023-08-06T08:14:33;30.01;56.38
68128;SHT30;54931;52.098;21.006;2023-08-06T08:17:03;30.34;56.58
68128;SHT30;54931;52.098;21.006;2023-08-06T08:19:33;30.63;55.13
68128;SHT30;54931;52.098;21.006;2023-08-06T08:22:01;30.79;53.84
68128;SHT30;54931;52.098;21.006;2023-08-06T08:24:28;30.75;53.66
68128;SHT30;54931;52.098;21.006;2023-08-06T08:26:57;30.74;52.50
68128;SHT30;54931;52.098;21.006;2023-08-06T08:29:27;30.85;52.87
68128;SHT30;54931;52.098;21.006;2023-08-06T08:31:56;30.94;52.87
68128;SHT30;54931;52.098;21.006;2023-08-06T08:34:23;30.98;53.03
68128;SHT30;54931;52.098;21.006;2023-08-06T08:36:51;30.98;53.09
68128;SHT30;54931;52.098;21.006;2023-08-06T08:39:19;30.92;53.23
68128;SHT30;54931;52.098;21.006;2023-08-06T08:41:47;30.90;53.65
68128;SHT30;54931;52.098;21.006;2023-08-06T08:44:15;30.83;52.97
68128;SHT30;54931;52.098;21.006;2023-08-06T08:46:45;30.95;53.75
68128;SHT30;54931;52.098;21.006;2023-08-06T08:49:16;31.07;53.03
68128;SHT30;54931;52.098;21.006;2023-08-06T08:51:46;31.17;52.94
68128;SHT30;54931;52.098;21.006;2023-08-06T08:54:17;31.31;53.04
68128;SHT30;54931;52.098;21.006;2023-08-06T08:56:47;31.51;52.37
68128;SHT30;54931;52.098;21.006;2023-08-06T08:59:18;31.55;51.67
68128;SHT30;54931;52.098;21.006;2023-08-06T09:01:45;31.49;50.76
68128;SHT30;54931;52.098;21.006;2023-08-06T09:04:18;31.23;51.85
68128;SHT30;54931;52.098;21.006;2023-08-06T09:06:50;31.20;52.57
68128;SHT30;54931;52.098;21.006;2023-08-06T09:09:28;31.07;51.43
68128;SHT30;54931;52.098;21.006;2023-08-06T09:12:01;30.97;52.39
68128;SHT30;54931;52.098;21.006;2023-08-06T09:14:32;31.21;52.04
68128;SHT30;54931;52.098;21.006;2023-08-06T09:17:00;31.16;50.35
68128;SHT30;54931;52.098;21.006;2023-08-06T09:19:28;31.09;51.40
68128;SHT30;54931;52.098;21.006;2023-08-06T09:21:56;31.25;50.74
68128;SHT30;54931;52.098;21.006;2023-08-06T09:24:24;31.33;50.91
68128;SHT30;54931;52.098;21.006;2023-08-06T09:26:56;31.29;50.99
68128;SHT30;54931;52.098;21.006;2023-08-06T09:29:26;31.25;51.30
68128;SHT30;54931;52.098;21.006;2023-08-06T09:31:59;31.11;51.00
68128;SHT30;54931;52.098;21.006;2023-08-06T09:34:27;30.91;50.17
68128;SHT30;54931;52.098;21.006;2023-08-06T09:36:55;30.71;50.58
68128;SHT30;54931;52.098;21.006;2023-08-06T09:39:28;30.60;51.22
68128;SHT30;54931;52.098;21.006;2023-08-06T09:41:58;30.65;50.42
68128;SHT30;54931;52.098;21.006;2023-08-06T09:44:29;30.62;50.21
68128;SHT30;54931;52.098;21.006;2023-08-06T09:47:00;30.50;50.92
68128;SHT30;54931;52.098;21.006;2023-08-06T09:52:06;30.68;50.92
68128;SHT30;54931;52.098;21.006;2023-08-06T09:54:39;30.83;50.57
68128;SHT30;54931;52.098;21.006;2023-08-06T09:57:10;31.12;49.54
68128;SHT30;54931;52.098;21.006;2023-08-06T09:59:41;31.27;48.48
68128;SHT30;54931;52.098;21.006;2023-08-06T10:02:12;31.18;48.87
68128;SHT30;54931;52.098;21.006;2023-08-06T10:04:43;31.24;49.45
68128;SHT30;54931;52.098;21.006;2023-08-06T10:07:13;31.42;48.90
68128;SHT30;54931;52.098;21.006;2023-08-06T10:09:42;31.65;49.35
68128;SHT30;54931;52.098;21.006;2023-08-06T10:12:10;31.73;48.17
68128;SHT30;54931;52.098;21.006;2023-08-06T10:14:38;31.66;48.40
68128;SHT30;54931;52.098;21.006;2023-08-06T10:17:09;31.82;47.96
68128;SHT30;54931;52.098;21.006;2023-08-06T10:19:37;31.87;47.57
68128;SHT30;54931;52.098;21.006;2023-08-06T10:24:51;31.50;48.06
68128;SHT30;54931;52.098;21.006;2023-08-06T10:32:58;31.13;49.21
68128;SHT30;54931;52.098;21.006;2023-08-06T10:35:38;30.91;50.03
68128;SHT30;54931;52.098;21.006;2023-08-06T10:38:21;30.66;50.12
68128;SHT30;54931;52.098;21.006;2023-08-06T10:43:25;30.20;51.12
68128;SHT30;54931;52.098;21.006;2023-08-06T10:46:04;30.00;51.02
68128;SHT30;54931;52.098;21.006;2023-08-06T10:48:38;29.77;51.32
68128;SHT30;54931;52.098;21.006;2023-08-06T10:51:08;29.64;51.70
68128;SHT30;54931;52.098;21.006;2023-08-06T10:53:38;29.64;52.04
68128;SHT30;54931;52.098;21.006;2023-08-06T10:56:20;29.66;52.13
68128;SHT30;54931;52.098;21.006;2023-08-06T10:58:50;29.61;52.19
68128;SHT30;54931;52.098;21.006;2023-08-06T11:01:21;29.55;52.68
68128;SHT30;54931;52.098;21.006;2023-08-06T11:03:51;29.47;52.54
68128;SHT30;54931;52.098;21.006;2023-08-06T11:06:20;29.41;53.09
68128;SHT30;54931;52.098;21.006;2023-08-06T11:08:50;29.44;53.16
68128;SHT30;54931;52.098;21.006;2023-08-06T11:11:22;29.73;52.18
68128;SHT30;54931;52.098;21.006;2023-08-06T11:13:51;30.03;51.90
68128;SHT30;54931;52.098;21.006;2023-08-06T11:16:20;30.09;51.78
68128;SHT30;54931;52.098;21.006;2023-08-06T11:18:51;30.02;51.35
68128;SHT30;54931;52.098;21.006;2023-08-06T11:21:21;29.90;51.71
68128;SHT30;54931;52.098;21.006;2023-08-06T11:23:51;30.00;51.99
68128;SHT30;54931;52.098;21.006;2023-08-06T11:26:20;30.30;51.05
68128;SHT30;54931;52.098;21.006;2023-08-06T11:28:50;30.53;50.51
68128;SHT30;54931;52.098;21.006;2023-08-06T11:31:22;30.67;50.01
68128;SHT30;54931;52.098;21.006;2023-08-06T11:33:51;30.77;49.52
68128;SHT30;54931;52.098;21.006;2023-08-06T11:36:32;30.84;49.10
68128;SHT30;54931;52.098;21.006;2023-08-06T11:39:08;30.93;50.19
68128;SHT30;54931;52.098;21.006;2023-08-06T11:41:36;31.09;49.60
68128;SHT30;54931;52.098;21.006;2023-08-06T11:44:10;31.10;48.60
68128;SHT30;54931;52.098;21.006;2023-08-06T11:46:55;30.96;47.23
68128;SHT30;54931;52.098;21.006;2023-08-06T11:49:39;30.86;48.09
68128;SHT30;54931;52.098;21.006;2023-08-06T11:55:01;31.08;48.76
68128;SHT30;54931;52.098;21.006;2023-08-06T11:57:37;31.22;47.79
68128;SHT30;54931;52.098;21.006;2023-08-06T12:00:09;31.25;47.69
68128;SHT30;54931;52.098;21.006;2023-08-06T12:02:40;31.18;47.35
68128;SHT30;54931;52.098;21.006;2023-08-06T12:07:38;30.90;47.40
68128;SHT30;54931;52.098;21.006;2023-08-06T12:10:11;30.80;46.79
68128;SHT30;54931;52.098;21.006;2023-08-06T12:12:40;30.70;44.73
68128;SHT30;54931;52.098;21.006;2023-08-06T12:15:09;30.58;44.71
68128;SHT30;54931;52.098;21.006;2023-08-06T12:17:37;30.44;45.37
68128;SHT30;54931;52.098;21.006;2023-08-06T12:20:06;30.32;45.67
68128;SHT30;54931;52.098;21.006;2023-08-06T12:22:35;30.21;45.40
68128;SHT30;54931;52.098;21.006;2023-08-06T12:25:08;30.05;45.32
68128;SHT30;54931;52.098;21.006;2023-08-06T12:27:41;29.89;45.95
68128;SHT30;54931;52.098;21.006;2023-08-06T12:30:10;29.72;46.40
68128;SHT30;54931;52.098;21.006;2023-08-06T12:32:40;29.55;46.61
68128;SHT30;54931;52.098;21.006;2023-08-06T12:35:08;29.40;47.05
68128;SHT30;54931;52.098;21.006;2023-08-06T12:37:36;29.25;47.36
68128;SHT30;54931;52.098;21.006;2023-08-06T12:40:05;29.12;47.96
68128;SHT30;54931;52.098;21.006;2023-08-06T12:42:34;29.01;48.71
68128;SHT30;54931;52.098;21.006;2023-08-06T12:45:02;28.93;48.85
68128;SHT30;54931;52.098;21.006;2023-08-06T12:47:30;28.88;49.17
68128;SHT30;54931;52.098;21.006;2023-08-06T12:49:58;28.86;49.62
68128;SHT30;54931;52.098;21.006;2023-08-06T12:52:26;28.85;49.89
68128;SHT30;54931;52.098;21.006;2023-08-06T12:54:53;28.85;50.17
68128;SHT30;54931;52.098;21.006;2023-08-06T12:57:21;28.86;50.50
68128;SHT30;54931;52.098;21.006;2023-08-06T12:59:49;28.89;50.56
68128;SHT30;54931;52.098;21.006;2023-08-06T13:02:17;28.91;50.04
68128;SHT30;54931;52.098;21.006;2023-08-06T13:04:46;28.93;49.70
68128;SHT30;54931;52.098;21.006;2023-08-06T13:07:21;28.98;50.27
68128;SHT30;54931;52.098;21.006;2023-08-06T13:09:50;29.00;51.16
68128;SHT30;54931;52.098;21.006;2023-08-06T13:12:19;28.90;51.45
68128;SHT30;54931;52.098;21.006;2023-08-06T13:14:52;28.70;51.85
68128;SHT30;54931;52.098;21.006;2023-08-06T13:17:20;28.59;52.71
68128;SHT30;54931;52.098;21.006;2023-08-06T13:19:49;28.52;53.04
68128;SHT30;54931;52.098;21.006;2023-08-06T13:22:19;28.50;53.76
68128;SHT30;54931;52.098;21.006;2023-08-06T13:24:48;28.48;53.85
68128;SHT30;54931;52.098;21.006;2023-08-06T13:27:17;28.47;54.03
68128;SHT30;54931;52.098;21.006;2023-08-06T13:29:50;28.50;54.21
68128;SHT30;54931;52.098;21.006;2023-08-06T13:32:20;28.54;54.18
68128;SHT30;54931;52.098;21.006;2023-08-06T13:34:48;28.54;54.50
68128;SHT30;54931;52.098;21.006;2023-08-06T13:37:16;28.55;54.49
68128;SHT30;54931;52.098;21.006;2023-08-06T13:39:44;28.54;54.31
68128;SHT30;54931;52.098;21.006;2023-08-06T13:42:13;28.66;54.68
68128;SHT30;54931;52.098;21.006;2023-08-06T13:44:44;28.83;54.53
68128;SHT30;54931;52.098;21.006;2023-08-06T13:47:14;28.92;54.50
68128;SHT30;54931;52.098;21.006;2023-08-06T13:49:42;28.93;54.41
68128;SHT30;54931;52.098;21.006;2023-08-06T13:52:17;28.94;54.39
68128;SHT30;54931;52.098;21.006;2023-08-06T13:54:44;29.02;54.01
68128;SHT30;54931;52.098;21.006;2023-08-06T13:57:13;29.09;53.72
68128;SHT30;54931;52.098;21.006;2023-08-06T13:59:41;29.11;53.05
68128;SHT30;54931;52.098;21.006;2023-08-06T14:02:11;29.18;52.57
68128;SHT30;54931;52.098;21.006;2023-08-06T14:04:39;29.26;52.20
68128;SHT30;54931;52.098;21.006;2023-08-06T14:07:07;29.29;51.95
68128;SHT30;54931;52.098;21.006;2023-08-06T14:09:37;29.24;51.86
68128;SHT30;54931;52.098;21.006;2023-08-06T14:12:06;29.17;51.69
68128;SHT30;54931;52.098;21.006;2023-08-06T14:14:34;29.07;52.16
68128;SHT30;54931;52.098;21.006;2023-08-06T14:17:02;28.97;51.98
68128;SHT30;54931;52.098;21.006;2023-08-06T14:19:30;28.84;51.95
68128;SHT30;54931;52.098;21.006;2023-08-06T14:21:58;28.69;51.72
68128;SHT30;54931;52.098;21.006;2023-08-06T14:24:27;28.60;52.24
68128;SHT30;54931;52.098;21.006;2023-08-06T14:26:58;28.59;52.46
68128;SHT30;54931;52.098;21.006;2023-08-06T14:29:27;28.56;52.41
68128;SHT30;54931;52.098;21.006;2023-08-06T14:31:55;28.52;52.29
68128;SHT30;54931;52.098;21.006;2023-08-06T14:34:23;28.45;52.21
68128;SHT30;54931;52.098;21.006;2023-08-06T14:36:54;28.39;52.81
68128;SHT30;54931;52.098;21.006;2023-08-06T14:39:23;28.34;53.16
68128;SHT30;54931;52.098;21.006;2023-08-06T14:41:56;28.34;53.14
68128;SHT30;54931;52.098;21.006;2023-08-06T14:44:24;28.28;53.21
68128;SHT30;54931;52.098;21.006;2023-08-06T14:46:53;28.27;53.96
68128;SHT30;54931;52.098;21.006;2023-08-06T14:49:21;28.43;55.21
68128;SHT30;54931;52.098;21.006;2023-08-06T14:51:53;28.62;55.38
68128;SHT30;54931;52.098;21.006;2023-08-06T14:54:23;28.80;55.11
68128;SHT30;54931;52.098;21.006;2023-08-06T14:56:51;28.80;54.70
68128;SHT30;54931;52.098;21.006;2023-08-06T14:59:21;28.72;55.15
68128;SHT30;54931;52.098;21.006;2023-08-06T15:01:52;28.75;55.32
68128;SHT30;54931;52.098;21.006;2023-08-06T15:04:22;28.77;55.25
68128;SHT30;54931;52.098;21.006;2023-08-06T15:06:51;28.82;54.99
68128;SHT30;54931;52.098;21.006;2023-08-06T15:09:20;28.75;54.61
68128;SHT30;54931;52.098;21.006;2023-08-06T15:11:49;28.53;54.72
68128;SHT30;54931;52.098;21.006;2023-08-06T15:14:20;28.49;55.56
68128;SHT30;54931;52.098;21.006;2023-08-06T15:16:49;28.53;55.20
68128;SHT30;54931;52.098;21.006;2023-08-06T15:19:19;28.55;55.41
68128;SHT30;54931;52.098;21.006;2023-08-06T15:21:47;28.50;55.62
68128;SHT30;54931;52.098;21.006;2023-08-06T15:24:24;28.52;55.64
68128;SHT30;54931;52.098;21.006;2023-08-06T15:26:55;28.59;55.85
68128;SHT30;54931;52.098;21.006;2023-08-06T15:29:24;28.60;55.61
68128;SHT30;54931;52.098;21.006;2023-08-06T15:31:52;28.52;55.29
68128;SHT30;54931;52.098;21.006;2023-08-06T15:34:20;28.39;55.32
68128;SHT30;54931;52.098;21.006;2023-08-06T15:36:48;28.23;55.83
68128;SHT30;54931;52.098;21.006;2023-08-06T15:39:16;28.10;55.83
68128;SHT30;54931;52.098;21.006;2023-08-06T15:41:44;27.94;55.71
68128;SHT30;54931;52.098;21.006;2023-08-06T15:44:12;27.80;55.87
68128;SHT30;54931;52.098;21.006;2023-08-06T15:46:42;27.74;55.93
68128;SHT30;54931;52.098;21.006;2023-08-06T15:49:13;27.69;55.87
68128;SHT30;54931;52.098;21.006;2023-08-06T15:51:41;27.77;55.96